createdAt,value
2023-04-05T00:02:02.988Z,75.35
2023-04-05T00:04:34.867Z,75.47
2023-04-05T00:07:08.326Z,75.46
2023-04-05T00:09:36.716Z,75.34
2023-04-05T00:12:10.704Z,75.50
2023-04-05T00:14:44.142Z,75.79
2023-04-05T00:17:13.466Z,75.77
2023-04-05T00:19:43.246Z,75.76
2023-04-05T00:22:12.626Z,75.66
2023-04-05T00:24:43.609Z,75.66
2023-04-05T00:27:14.743Z,75.42
2023-04-05T00:29:43.613Z,75.50
2023-04-05T00:32:12.092Z,75.54
2023-04-05T00:34:41.918Z,75.71
2023-04-05T00:37:11.986Z,75.33
2023-04-05T00:39:40.364Z,75.37
2023-04-05T00:42:09.433Z,75.72
2023-04-05T00:44:37.689Z,76.00
2023-04-05T00:47:09.128Z,76.23
2023-04-05T00:49:37.844Z,76.39
2023-04-05T00:52:06.784Z,76.56
2023-04-05T00:54:35.086Z,76.52
2023-04-05T00:57:03.703Z,76.37
2023-04-05T00:59:35.809Z,76.59
2023-04-05T01:02:19.943Z,76.72
2023-04-05T01:04:50.920Z,76.66
2023-04-05T01:07:31.850Z,76.59
2023-04-05T01:10:00.952Z,76.62
2023-04-05T01:12:33.211Z,76.24
2023-04-05T01:15:01.488Z,75.95
2023-04-05T01:17:36.979Z,75.92
2023-04-05T01:20:10.419Z,75.77
2023-04-05T01:23:02.663Z,75.86
2023-04-05T01:25:54.413Z,75.75
2023-04-05T01:28:42.088Z,75.27
2023-04-05T01:31:19.933Z,74.59
2023-04-05T01:34:38.453Z,73.90
2023-04-05T01:37:08.242Z,73.68
2023-04-05T01:39:36.818Z,73.90
2023-04-05T01:42:06.310Z,74.20
2023-04-05T01:44:36.903Z,74.49
2023-04-05T01:47:05.415Z,74.74
2023-04-05T01:49:33.589Z,74.70
2023-04-05T01:52:01.869Z,74.80
2023-04-05T01:54:32.514Z,74.85
2023-04-05T01:57:01.124Z,75.19
2023-04-05T01:59:29.592Z,75.46
2023-04-05T02:01:58.357Z,75.78
2023-04-05T02:04:27.778Z,75.93
2023-04-05T02:06:57.226Z,76.19
2023-04-05T02:09:25.772Z,75.89
2023-04-05T02:13:49.086Z,75.84
2023-04-05T02:16:18.613Z,75.85
2023-04-05T02:18:51.160Z,75.98
2023-04-05T02:21:23.459Z,75.88
2023-04-05T02:23:55.280Z,75.88
2023-04-05T02:26:23.521Z,75.71
2023-04-05T02:28:54.758Z,75.66
2023-04-05T02:31:23.278Z,75.40
2023-04-05T02:33:51.568Z,75.33
2023-04-05T02:36:19.860Z,75.25
2023-04-05T02:38:48.504Z,75.49
2023-04-05T02:41:18.556Z,75.77
2023-04-05T02:43:47.439Z,75.83
2023-04-05T02:46:16.330Z,75.78
2023-04-05T02:48:45.852Z,75.56
2023-04-05T02:51:15.060Z,75.45
2023-04-05T02:53:45.077Z,75.37
2023-04-05T02:56:15.228Z,75.28
2023-04-05T02:58:49.733Z,74.97
2023-04-05T03:01:20.979Z,74.90
2023-04-05T03:03:51.166Z,74.86
2023-04-05T03:06:21.997Z,74.73
2023-04-05T03:08:51.589Z,74.66
2023-04-05T03:11:22.700Z,74.82
2023-04-05T03:13:56.595Z,74.84
2023-04-05T03:16:44.774Z,75.01
2023-04-05T03:19:22.640Z,75.08
2023-04-05T03:21:53.485Z,75.26
2023-04-05T03:24:29.268Z,75.27
2023-04-05T03:27:02.745Z,75.33
2023-04-05T03:29:33.082Z,75.35
2023-04-05T03:32:05.872Z,75.32
2023-04-05T03:34:34.830Z,75.33
2023-04-05T03:37:04.170Z,75.56
2023-04-05T03:39:40.153Z,75.76
2023-04-05T03:42:08.235Z,75.96
2023-04-05T03:44:36.951Z,76.02
2023-04-05T03:47:08.053Z,75.81
2023-04-05T03:49:37.408Z,75.98
2023-04-05T03:52:05.617Z,75.82
2023-04-05T03:54:33.861Z,75.81
2023-04-05T03:57:03.099Z,75.75
2023-04-05T03:59:38.608Z,75.41
2023-04-05T04:02:07.996Z,75.23
2023-04-05T04:04:36.656Z,75.27
2023-04-05T04:07:05.950Z,75.29
2023-04-05T04:09:34.477Z,75.04
2023-04-05T04:12:08.462Z,75.12
2023-04-05T04:14:43.242Z,75.06
2023-04-05T04:17:34.774Z,75.17
2023-04-05T04:20:26.656Z,74.94
2023-04-05T04:23:30.659Z,74.65
2023-04-05T04:26:29.362Z,74.74
2023-04-05T04:29:16.426Z,74.73
2023-04-05T04:32:27.322Z,74.80
2023-04-05T04:35:05.297Z,74.76
2023-04-05T04:38:04.918Z,74.91
2023-04-05T04:40:47.773Z,74.60
2023-04-05T04:43:26.915Z,74.58
2023-04-05T04:46:19.326Z,73.91
2023-04-05T04:49:06.069Z,73.34
2023-04-05T04:51:37.952Z,73.50
2023-04-05T04:54:06.555Z,73.61
2023-04-05T04:56:36.085Z,73.63
2023-04-05T04:59:04.226Z,73.72
2023-04-05T05:01:34.275Z,73.38
2023-04-05T05:05:50.291Z,72.92
2023-04-05T05:08:22.037Z,72.93
2023-04-05T05:10:53.618Z,72.94
2023-04-05T05:13:22.516Z,72.89
2023-04-05T05:15:51.947Z,72.87
2023-04-05T05:18:20.221Z,72.86
2023-04-05T05:20:53.254Z,72.78
2023-04-05T05:23:21.503Z,72.81
2023-04-05T05:25:49.875Z,72.80
2023-04-05T05:28:18.333Z,72.44
2023-04-05T05:30:55.932Z,72.39
2023-04-05T05:33:25.954Z,72.55
2023-04-05T05:35:54.088Z,72.66
2023-04-05T05:38:22.622Z,72.72
2023-04-05T05:40:57.913Z,72.86
2023-04-05T05:43:26.615Z,72.87
2023-04-05T05:45:54.844Z,72.96
2023-04-05T05:48:23.537Z,73.20
2023-04-05T05:50:52.457Z,73.53
2023-04-05T05:53:22.355Z,73.63
2023-04-05T05:55:50.624Z,73.58
2023-04-05T05:58:19.449Z,73.63
2023-04-05T06:00:49.963Z,73.90
2023-04-05T06:03:19.804Z,74.13
2023-04-05T06:05:54.685Z,73.98
2023-04-05T06:08:25.685Z,73.71
2023-04-05T06:10:55.250Z,73.97
2023-04-05T06:13:24.423Z,74.02
2023-04-05T06:15:59.316Z,73.82
2023-04-05T06:18:28.125Z,73.74
2023-04-05T06:20:56.538Z,73.37
2023-04-05T06:23:27.191Z,73.34
2023-04-05T06:25:57.136Z,73.42
2023-04-05T06:28:25.389Z,73.79
2023-04-05T06:30:54.446Z,73.59
2023-04-05T06:33:23.631Z,73.19
2023-04-05T06:35:51.802Z,73.36
2023-04-05T06:38:21.141Z,73.62
2023-04-05T06:40:50.026Z,73.53
2023-04-05T06:43:18.337Z,73.20
2023-04-05T06:45:46.600Z,73.07
2023-04-05T06:48:21.437Z,72.95
2023-04-05T06:51:02.752Z,73.25
2023-04-05T06:53:31.217Z,73.46
2023-04-05T06:56:00.707Z,73.27
2023-04-05T06:58:29.512Z,73.03
2023-04-05T07:00:58.185Z,72.27
2023-04-05T07:03:28.500Z,72.37
2023-04-05T07:06:02.866Z,72.21
2023-04-05T07:08:34.510Z,72.28
2023-04-05T07:11:02.806Z,71.58
2023-04-05T07:13:32.194Z,71.28
2023-04-05T07:16:01.917Z,70.88
2023-04-05T07:18:31.187Z,70.86
2023-04-05T07:21:03.961Z,70.99
2023-04-05T07:23:34.878Z,71.19
2023-04-05T07:26:08.488Z,71.10
2023-04-05T07:28:39.685Z,70.51
2023-04-05T07:31:08.116Z,70.36
2023-04-05T07:33:36.743Z,69.95
2023-04-05T07:36:05.652Z,69.00
2023-04-05T07:38:34.651Z,69.09
2023-04-05T07:41:03.100Z,69.42
2023-04-05T07:43:31.313Z,69.22
2023-04-05T07:46:03.454Z,68.49
2023-04-05T07:48:31.949Z,67.76
2023-04-05T07:51:07.355Z,68.11
2023-04-05T07:53:37.144Z,67.97
2023-04-05T07:56:12.429Z,67.61
2023-04-05T07:58:41.444Z,67.01
2023-04-05T08:01:10.292Z,66.40
2023-04-05T08:03:40.190Z,67.23
2023-04-05T08:06:11.603Z,67.70
2023-04-05T08:08:40.931Z,67.52
2023-04-05T08:11:12.125Z,67.19
2023-04-05T08:13:43.922Z,67.27
2023-04-05T08:16:12.382Z,66.95
2023-04-05T08:21:41.115Z,67.14
2023-04-05T08:24:09.486Z,66.88
2023-04-05T08:26:42.098Z,67.02
2023-04-05T08:29:11.536Z,67.10
2023-04-05T08:31:40.937Z,67.60
2023-04-05T08:34:09.873Z,67.83
2023-04-05T08:36:38.066Z,67.29
2023-04-05T08:39:06.751Z,66.98
2023-04-05T08:41:37.199Z,66.91
2023-04-05T08:44:07.290Z,67.12
2023-04-05T08:46:35.614Z,67.20
2023-04-05T08:49:08.221Z,67.10
2023-04-05T08:51:39.529Z,67.06
2023-04-05T08:54:10.162Z,66.67
2023-04-05T08:56:38.833Z,66.42
2023-04-05T08:59:12.450Z,66.58
2023-04-05T09:01:44.746Z,67.02
2023-04-05T09:04:24.550Z,66.72
2023-04-05T09:06:53.680Z,66.02
2023-04-05T09:09:21.998Z,66.01
2023-04-05T09:11:52.227Z,65.18
2023-04-05T09:14:20.993Z,64.79
2023-04-05T09:16:53.966Z,64.80
2023-04-05T09:19:24.842Z,65.03
2023-04-05T09:22:06.973Z,66.05
2023-04-05T09:24:42.277Z,66.68
2023-04-05T09:27:12.378Z,65.51
2023-04-05T09:29:45.397Z,64.76
2023-04-05T09:32:15.360Z,64.09
2023-04-05T09:34:52.511Z,63.74
2023-04-05T09:37:33.587Z,63.73
2023-04-05T09:40:04.395Z,63.82
2023-04-05T09:42:45.023Z,63.78
2023-04-05T09:45:18.935Z,62.37
2023-04-05T09:48:00.552Z,62.86
2023-04-05T09:50:31.128Z,63.20
2023-04-05T09:53:16.682Z,63.35
2023-04-05T09:55:46.694Z,63.23
2023-04-05T09:58:21.469Z,63.73
2023-04-05T10:01:00.009Z,64.09
2023-04-05T10:03:41.547Z,63.32
2023-04-05T10:06:10.209Z,63.23
2023-04-05T10:08:38.731Z,62.66
2023-04-05T10:11:07.149Z,62.18
2023-04-05T10:13:35.385Z,61.43
2023-04-05T10:16:04.457Z,60.90
2023-04-05T10:18:43.419Z,61.61
2023-04-05T10:21:12.620Z,61.70
2023-04-05T10:23:44.217Z,61.62
2023-04-05T10:26:32.211Z,62.36
2023-04-05T10:29:10.387Z,62.73
2023-04-05T10:31:48.206Z,62.94
2023-04-05T10:34:27.537Z,62.48
2023-04-05T10:37:02.082Z,60.44
2023-04-05T10:39:52.784Z,61.08
2023-04-05T10:42:28.578Z,61.48
2023-04-05T10:45:11.818Z,61.20
2023-04-05T10:47:55.979Z,61.67
2023-04-05T10:50:27.231Z,61.70
2023-04-05T10:53:09.155Z,62.08
2023-04-05T10:55:40.170Z,61.37
2023-04-05T10:58:11.016Z,59.58
2023-04-05T11:00:41.955Z,59.10
2023-04-05T11:03:11.682Z,58.97
2023-04-05T11:05:46.708Z,58.05
2023-04-05T11:08:16.505Z,59.16
2023-04-05T11:10:50.866Z,60.29
2023-04-05T11:13:20.834Z,60.53
2023-04-05T11:16:17.218Z,59.65
2023-04-05T11:18:52.576Z,58.64
2023-04-05T11:21:25.989Z,58.94
2023-04-05T11:24:07.228Z,57.97
2023-04-05T11:26:48.971Z,58.64
2023-04-05T11:29:17.735Z,59.23
2023-04-05T11:32:00.468Z,59.15
2023-04-05T11:34:29.093Z,57.90
2023-04-05T11:36:58.077Z,57.58
2023-04-05T11:39:28.778Z,58.58
2023-04-05T11:42:24.094Z,58.60
2023-04-05T11:44:54.686Z,59.49
2023-04-05T11:47:32.044Z,59.40
2023-04-05T11:52:48.453Z,60.06
2023-04-05T11:55:17.594Z,59.32
2023-04-05T11:57:46.257Z,58.32
2023-04-05T12:00:16.091Z,57.93
2023-04-05T12:02:45.463Z,58.13
2023-04-05T12:05:14.194Z,58.00
2023-04-05T12:07:42.965Z,58.57
2023-04-05T12:10:20.943Z,58.63
2023-04-05T12:12:49.908Z,59.61
2023-04-05T12:15:19.175Z,59.45
2023-04-05T12:17:56.049Z,59.56
2023-04-05T12:20:28.739Z,59.13
2023-04-05T12:23:02.381Z,59.89
2023-04-05T12:25:31.807Z,59.42
2023-04-05T12:28:09.778Z,59.07
2023-04-05T12:30:38.684Z,58.81
2023-04-05T12:33:10.940Z,58.50
2023-04-05T12:35:39.394Z,58.06
2023-04-05T12:38:10.417Z,57.78
2023-04-05T12:40:40.751Z,57.23
2023-04-05T12:43:09.272Z,58.18
2023-04-05T12:45:42.367Z,57.89
2023-04-05T12:48:14.126Z,57.87
2023-04-05T12:50:46.632Z,57.99
2023-04-05T12:53:18.396Z,58.58
2023-04-05T12:55:54.177Z,58.60
2023-04-05T12:58:23.796Z,58.17
2023-04-05T13:00:52.039Z,57.01
2023-04-05T13:03:21.718Z,57.12
2023-04-05T13:05:51.477Z,57.32
2023-04-05T13:08:20.027Z,57.82
2023-04-05T13:10:49.085Z,57.74
2023-04-05T13:13:17.783Z,57.97
2023-04-05T13:15:46.159Z,57.90
2023-04-05T13:18:14.886Z,58.18
2023-04-05T13:20:47.571Z,57.71
2023-04-05T13:23:16.076Z,57.58
2023-04-05T13:25:47.232Z,56.96
2023-04-05T13:28:15.512Z,57.26
2023-04-05T13:30:43.731Z,57.35
2023-04-05T13:33:13.309Z,57.90
2023-04-05T13:35:42.316Z,57.74
2023-04-05T13:38:11.280Z,57.47
2023-04-05T13:40:39.873Z,57.85
2023-04-05T13:43:08.342Z,57.83
2023-04-05T13:45:39.906Z,57.76
2023-04-05T13:48:08.437Z,57.58
2023-04-05T13:50:40.814Z,57.50
2023-04-05T13:53:09.472Z,57.37
2023-04-05T13:55:38.339Z,57.63
2023-04-05T13:58:11.663Z,57.46
2023-04-05T14:00:40.772Z,57.28
2023-04-05T14:03:09.727Z,56.85
2023-04-05T14:05:38.373Z,56.61
2023-04-05T14:08:06.459Z,56.73
2023-04-05T14:10:37.935Z,57.30
2023-04-05T14:13:06.904Z,57.63
2023-04-05T14:15:36.053Z,57.32
2023-04-05T14:18:05.633Z,56.66
2023-04-05T14:20:34.228Z,56.99
2023-04-05T14:23:02.691Z,56.89
2023-04-05T14:25:34.969Z,56.78
2023-04-05T14:28:03.379Z,57.04
2023-04-05T14:31:57.501Z,57.36
2023-04-05T14:34:28.870Z,58.03
2023-04-05T14:36:58.521Z,57.84
2023-04-05T14:39:28.877Z,58.07
2023-04-05T14:41:59.992Z,58.02
2023-04-05T14:44:29.509Z,57.31
2023-04-05T14:46:58.383Z,57.66
2023-04-05T14:49:26.558Z,57.74
2023-04-05T14:51:55.002Z,58.08
2023-04-05T14:54:23.383Z,57.30
2023-04-05T14:56:53.868Z,57.34
2023-04-05T14:59:23.976Z,57.81
2023-04-05T15:01:53.611Z,57.88
2023-04-05T15:04:22.203Z,58.19
2023-04-05T15:06:50.404Z,58.03
2023-04-05T15:09:18.644Z,57.70
2023-04-05T15:11:50.157Z,57.94
2023-04-05T15:14:30.715Z,57.48
2023-04-05T15:17:01.016Z,57.53
2023-04-05T15:19:30.746Z,57.30
2023-04-05T15:21:59.966Z,57.66
2023-04-05T15:24:29.574Z,57.90
2023-04-05T15:27:02.302Z,58.17
2023-04-05T15:29:35.305Z,58.40
2023-04-05T15:32:03.915Z,58.34
2023-04-05T15:34:32.222Z,57.99
2023-04-05T15:37:00.475Z,57.79
2023-04-05T15:39:29.077Z,57.50
2023-04-05T15:41:57.966Z,57.76
2023-04-05T15:44:26.808Z,58.02
2023-04-05T15:46:55.365Z,57.84
2023-04-05T15:49:28.169Z,57.71
2023-04-05T15:52:00.503Z,58.15
2023-04-05T15:54:30.448Z,58.35
2023-04-05T15:56:59.170Z,58.62
2023-04-05T15:59:30.362Z,57.55
2023-04-05T16:01:58.667Z,57.91
2023-04-05T16:04:28.061Z,57.68
2023-04-05T16:06:59.793Z,57.12
2023-04-05T16:09:28.308Z,56.89
2023-04-05T16:11:56.985Z,56.50
2023-04-05T16:14:32.182Z,55.91
2023-04-05T16:17:01.098Z,55.96
2023-04-05T16:19:29.568Z,55.67
2023-04-05T16:21:57.869Z,55.71
2023-04-05T16:24:27.752Z,55.67
2023-04-05T16:26:56.966Z,55.65
2023-04-05T16:29:25.691Z,55.78
2023-04-05T16:31:54.267Z,55.93
2023-04-05T16:34:22.996Z,56.51
2023-04-05T16:36:51.734Z,56.06
2023-04-05T16:39:19.901Z,55.94
2023-04-05T16:41:48.085Z,56.04
2023-04-05T16:44:16.857Z,56.28
2023-04-05T16:46:47.382Z,56.75
2023-04-05T16:49:15.941Z,57.37
2023-04-05T16:51:45.351Z,57.72
2023-04-05T16:54:15.429Z,57.90
2023-04-05T16:56:43.612Z,57.05
2023-04-05T16:59:12.139Z,55.46
2023-04-05T17:01:40.985Z,55.54
2023-04-05T17:04:10.043Z,51.40
2023-04-05T17:06:38.754Z,52.27
2023-04-05T17:09:07.042Z,52.82
2023-04-05T17:11:35.222Z,51.74
2023-04-05T17:14:07.072Z,52.85
2023-04-05T17:16:35.938Z,52.47
2023-04-05T17:19:04.653Z,53.37
2023-04-05T17:21:38.666Z,53.45
2023-04-05T17:24:07.098Z,53.28
2023-04-05T17:26:35.399Z,52.90
2023-04-05T17:29:03.721Z,54.60
2023-04-05T17:31:33.524Z,57.30
2023-04-05T17:34:02.170Z,59.16
2023-04-05T17:36:30.560Z,60.31
2023-04-05T17:38:59.459Z,61.90
2023-04-05T17:41:28.260Z,62.93
2023-04-05T17:43:56.610Z,62.88
2023-04-05T17:46:34.357Z,62.72
2023-04-05T17:49:09.044Z,63.19
2023-04-05T17:51:37.555Z,63.48
2023-04-05T17:54:05.824Z,63.72
2023-04-05T17:56:34.406Z,64.68
2023-04-05T17:59:04.300Z,65.75
2023-04-05T18:04:45.825Z,67.79
2023-04-05T18:07:14.407Z,67.73
2023-04-05T18:10:08.912Z,67.30
2023-04-05T18:12:37.418Z,67.01
2023-04-05T18:15:06.375Z,67.25
2023-04-05T18:17:35.279Z,67.47
2023-04-05T18:20:05.326Z,67.90
2023-04-05T18:22:39.247Z,68.31
2023-04-05T18:25:09.287Z,68.73
2023-04-05T18:27:39.152Z,68.96
2023-04-05T18:30:08.656Z,69.06
2023-04-05T18:32:41.562Z,69.41
2023-04-05T18:35:10.223Z,69.43
2023-04-05T18:37:39.716Z,69.73
2023-04-05T18:40:11.750Z,70.03
2023-04-05T18:42:40.373Z,70.08
2023-04-05T18:45:09.332Z,70.18
2023-04-05T18:47:37.668Z,70.19
2023-04-05T18:50:10.167Z,70.33
2023-04-05T18:52:38.612Z,70.57
2023-04-05T18:55:08.424Z,70.56
2023-04-05T18:57:37.084Z,70.50
2023-04-05T19:00:06.686Z,70.47
2023-04-05T19:02:35.245Z,70.83
2023-04-05T19:05:03.829Z,71.01
2023-04-05T19:07:33.409Z,70.83
2023-04-05T19:10:01.835Z,70.71
2023-04-05T19:12:30.711Z,70.97
2023-04-05T19:14:58.996Z,71.10
2023-04-05T19:17:27.722Z,71.18
2023-04-05T19:19:55.975Z,71.44
2023-04-05T19:22:24.214Z,71.34
2023-04-05T19:24:54.740Z,71.40
2023-04-05T19:27:23.188Z,71.52
2023-04-05T19:29:52.014Z,71.63
2023-04-05T19:32:20.604Z,71.47
2023-04-05T19:34:48.932Z,71.57
2023-04-05T19:37:18.117Z,71.70
2023-04-05T19:39:48.321Z,71.95
2023-04-05T19:42:19.432Z,71.95
2023-04-05T19:44:57.991Z,72.12
2023-04-05T19:47:26.661Z,72.11
2023-04-05T19:49:59.815Z,72.03
2023-04-05T19:52:47.729Z,72.04
2023-04-05T19:55:32.785Z,72.35
2023-04-05T19:58:03.992Z,72.50
2023-04-05T20:00:43.421Z,72.65
2023-04-05T20:03:37.403Z,72.98
2023-04-05T20:06:09.489Z,73.31
2023-04-05T20:08:39.505Z,73.46
2023-04-05T20:11:10.907Z,73.75
2023-04-05T20:13:51.894Z,73.61
2023-04-05T20:16:26.941Z,73.83
2023-04-05T20:19:03.295Z,74.04
2023-04-05T20:21:33.368Z,74.28
2023-04-05T20:24:01.996Z,74.23
2023-04-05T20:26:31.550Z,74.42
2023-04-05T20:29:01.678Z,74.22
2023-04-05T20:31:33.650Z,74.26
2023-04-05T20:34:12.574Z,74.26
2023-04-05T20:36:47.514Z,74.43
2023-04-05T20:39:16.084Z,74.56
2023-04-05T20:41:46.569Z,74.79
2023-04-05T20:44:16.212Z,74.78
2023-04-05T20:46:46.952Z,74.69
2023-04-05T20:49:16.286Z,74.76
2023-04-05T20:51:45.082Z,74.74
2023-04-05T20:54:13.804Z,74.83
2023-04-05T20:56:44.069Z,74.88
2023-04-05T20:59:12.656Z,75.01
2023-04-05T21:01:42.889Z,75.09
2023-04-05T21:04:11.786Z,75.04
2023-04-05T21:09:27.868Z,75.11
2023-04-05T21:11:56.606Z,75.13
2023-04-05T21:14:24.993Z,75.15
2023-04-05T21:16:55.746Z,75.25
2023-04-05T21:19:24.266Z,75.26
2023-04-05T21:21:52.730Z,75.28
2023-04-05T21:24:21.070Z,75.10
2023-04-05T21:26:49.224Z,75.02
2023-04-05T21:29:18.730Z,75.10
2023-04-05T21:31:47.867Z,75.10
2023-04-05T21:34:16.281Z,75.19
2023-04-05T21:36:49.148Z,75.49
2023-04-05T21:39:17.516Z,75.55
2023-04-05T21:47:07.826Z,75.87
2023-04-05T21:49:39.949Z,75.91
2023-04-05T21:52:08.789Z,75.96
2023-04-05T21:54:37.226Z,76.30
2023-04-05T21:57:06.089Z,76.41
2023-04-05T21:59:34.613Z,76.49
2023-04-05T22:02:07.676Z,76.39
2023-04-05T22:04:36.678Z,76.65
2023-04-05T22:07:06.277Z,76.85
2023-04-05T22:09:35.185Z,77.24
2023-04-05T22:12:03.970Z,77.21
2023-04-05T22:14:37.243Z,77.10
2023-04-05T22:17:05.646Z,77.14
2023-04-05T22:19:38.727Z,77.57
2023-04-05T22:22:14.459Z,77.55
2023-04-05T22:24:45.366Z,77.75
2023-04-05T22:27:14.182Z,78.04
2023-04-05T22:29:45.507Z,78.12
2023-04-05T22:32:16.891Z,78.04
2023-04-05T22:34:45.277Z,78.08
2023-04-05T22:37:16.452Z,78.24
2023-04-05T22:39:47.562Z,78.27
2023-04-05T22:42:26.635Z,78.47
2023-04-05T22:44:58.270Z,78.49
2023-04-05T22:47:27.492Z,78.40
2023-04-05T22:49:56.217Z,78.38
2023-04-05T22:52:24.719Z,78.32
2023-04-05T22:54:53.223Z,78.38
2023-04-05T22:57:21.456Z,78.61
2023-04-05T22:59:49.798Z,78.56
2023-04-05T23:02:18.392Z,78.77
2023-04-05T23:04:48.578Z,78.63
2023-04-05T23:07:17.099Z,78.73
2023-04-05T23:09:48.619Z,78.77
2023-04-05T23:12:17.806Z,78.91
2023-04-05T23:14:50.627Z,79.04
2023-04-05T23:17:21.311Z,79.01
2023-04-05T23:19:54.615Z,78.92
2023-04-05T23:22:25.090Z,78.94
2023-04-05T23:25:07.967Z,78.89
2023-04-05T23:27:36.417Z,79.04
2023-04-05T23:30:07.538Z,79.29
2023-04-05T23:32:36.810Z,79.36
2023-04-05T23:35:05.408Z,79.44
2023-04-05T23:37:36.926Z,79.12
2023-04-05T23:40:06.311Z,79.33
2023-04-05T23:42:37.482Z,79.34
2023-04-05T23:45:09.009Z,79.54
2023-04-05T23:47:38.852Z,79.83
2023-04-05T23:50:08.674Z,79.93
2023-04-05T23:52:37.363Z,79.94
2023-04-05T23:55:10.345Z,79.98
2023-04-05T23:57:39.432Z,79.94
